Time;durP1;ratioP1;P1;durP2;ratioP2;P2;SDS_P1;SDS_P2;PMS_P1;PMS_P2;Temp;Humidity;BMP_temperature;BMP_pressure;BME280_temperature;BME280_humidity;BME280_pressure;Samples;Min_cycle;Max_cycle;Signal;HPM_P1;HPM_P2
2021/06/30 00:00:40;;;;;;;9.40;6.95;;;;;;;23.72;59.89;99869.56;5090093;28;20036;-23
2021/06/30 00:03:06;;;;;;;10.43;7.18;;;;;;;23.73;59.85;99867.66;5090392;28;20032;-21
2021/06/30 00:05:31;;;;;;;9.43;6.90;;;;;;;23.77;60.05;99872.19;5089978;28;20070;-22
2021/06/30 00:07:56;;;;;;;10.32;7.20;;;;;;;23.62;60.41;99876.06;5089705;28;20036;-21
2021/06/30 00:10:22;;;;;;;9.10;6.82;;;;;;;23.50;60.72;99881.28;5089919;28;20056;-22
2021/06/30 00:12:47;;;;;;;12.00;6.90;;;;;;;23.53;60.55;99871.69;5089865;28;20024;-22
2021/06/30 00:15:22;;;;;;;11.20;6.45;;;;;;;23.70;60.16;99881.88;5090001;28;20496;-21
2021/06/30 00:17:47;;;;;;;11.35;6.95;;;;;;;23.69;60.06;99885.72;5089937;28;20035;-22
2021/06/30 00:20:13;;;;;;;13.20;6.78;;;;;;;23.66;60.24;99879.00;5089772;28;20032;-21
2021/06/30 00:22:39;;;;;;;9.45;6.90;;;;;;;23.73;60.31;99886.69;5089774;28;20028;-22
2021/06/30 00:25:05;;;;;;;12.38;7.40;;;;;;;24.43;57.82;99888.66;5089717;28;20141;-22
2021/06/30 00:27:30;;;;;;;9.38;7.43;;;;;;;24.35;58.10;99892.16;5089449;28;20131;-22
2021/06/30 00:29:56;;;;;;;9.43;6.85;;;;;;;24.53;57.96;99898.50;5089398;28;20480;-22
2021/06/30 00:32:21;;;;;;;13.55;7.97;;;;;;;24.57;57.86;99901.41;5089411;28;20020;-22
2021/06/30 00:34:47;;;;;;;9.98;6.60;;;;;;;24.52;57.85;99907.81;5071686;28;20040;-22
2021/06/30 00:37:12;;;;;;;8.85;7.18;;;;;;;24.04;59.00;99900.34;5089359;28;20035;-22
2021/06/30 00:39:38;;;;;;;12.10;7.63;;;;;;;23.74;59.48;99889.13;5089600;28;20047;-22
2021/06/30 00:42:03;;;;;;;12.98;7.07;;;;;;;23.82;59.47;99906.63;5088742;28;20793;-22
2021/06/30 00:44:33;;;;;;;10.63;6.35;;;;;;;23.74;60.11;99899.19;5088811;28;20036;-22
2021/06/30 00:46:59;;;;;;;9.73;6.82;;;;;;;23.56;60.87;99900.97;5089446;28;20062;-22
2021/06/30 00:49:25;;;;;;;8.95;6.60;;;;;;;23.42;60.03;99887.47;5089515;28;20036;-22
2021/06/30 00:51:50;;;;;;;10.98;6.40;;;;;;;23.55;60.15;99904.84;5088836;28;20091;-22
2021/06/30 00:54:16;;;;;;;9.35;6.53;;;;;;;23.19;60.78;99909.22;5089321;28;20028;-22
2021/06/30 00:56:41;;;;;;;10.90;6.57;;;;;;;23.21;60.97;99911.59;5089160;28;20035;-21
2021/06/30 00:59:07;;;;;;;14.88;6.82;;;;;;;23.23;60.66;99918.38;5089043;28;20031;-22
2021/06/30 01:01:32;;;;;;;9.65;6.18;;;;;;;22.79;62.03;99914.41;5054475;28;20808;-22
2021/06/30 01:03:58;;;;;;;8.50;6.22;;;;;;;22.81;62.30;99908.66;5088970;28;20044;-22
2021/06/30 01:06:23;;;;;;;10.15;7.22;;;;;;;23.02;61.52;99917.19;5088985;28;20050;-22
2021/06/30 01:08:49;;;;;;;12.80;6.88;;;;;;;22.76;63.00;99920.44;5088662;28;20052;-22
2021/06/30 01:11:14;;;;;;;8.35;6.72;;;;;;;22.85;61.98;99899.59;5088568;28;20031;-22
2021/06/30 01:13:40;;;;;;;10.35;6.82;;;;;;;22.69;62.18;99903.72;5088964;28;20457;-22
2021/06/30 01:16:06;;;;;;;12.10;6.50;;;;;;;22.63;62.68;99934.84;5088610;28;20032;-22
2021/06/30 01:18:32;;;;;;;11.70;6.93;;;;;;;22.49;62.21;99875.06;5089162;28;20138;-22
2021/06/30 01:20:58;;;;;;;9.73;6.22;;;;;;;22.77;62.02;99922.03;5088578;28;20075;-22
2021/06/30 01:23:24;;;;;;;10.48;6.55;;;;;;;22.71;62.18;99906.94;5088673;28;20028;-22
2021/06/30 01:25:50;;;;;;;8.27;6.20;;;;;;;22.83;61.98;99920.84;5088444;28;20149;-22
2021/06/30 01:28:16;;;;;;;8.30;6.30;;;;;;;22.69;62.31;99924.69;5088687;28;20032;-22
2021/06/30 01:30:41;;;;;;;9.10;6.05;;;;;;;22.82;62.27;99924.69;5088420;28;20028;-22
2021/06/30 01:33:07;;;;;;;11.40;6.78;;;;;;;22.59;62.82;99914.81;5088355;28;20035;-22
2021/06/30 01:35:33;;;;;;;9.13;6.47;;;;;;;22.71;62.64;99928.69;5088395;28;20024;-22
2021/06/30 01:37:58;;;;;;;11.63;6.82;;;;;;;22.74;62.50;99917.22;5088060;28;20031;-22
2021/06/30 01:40:24;;;;;;;10.60;7.38;;;;;;;22.92;61.73;99928.28;5088478;28;20036;-22
2021/06/30 01:42:51;;;;;;;9.35;6.72;;;;;;;22.87;61.78;99929.19;5088445;28;20028;-22
2021/06/30 01:45:16;;;;;;;9.35;6.50;;;;;;;23.12;60.72;99913.47;5088282;28;20093;-22
2021/06/30 01:47:42;;;;;;;8.88;6.72;;;;;;;22.98;61.58;99938.72;5088527;28;20040;-22
2021/06/30 01:50:08;;;;;;;9.75;7.30;;;;;;;22.99;61.76;99947.72;5088121;28;20377;-22
2021/06/30 01:52:33;;;;;;;11.80;6.63;;;;;;;22.94;62.33;99947.81;5087935;28;20063;-22
2021/06/30 01:54:59;;;;;;;8.23;6.10;;;;;;;22.95;61.73;99950.22;5087602;28;20445;-22
2021/06/30 01:57:24;;;;;;;13.30;7.28;;;;;;;22.84;62.07;99949.66;5087885;28;20036;-22
2021/06/30 01:59:50;;;;;;;12.27;6.85;;;;;;;22.70;62.77;99954.28;5087557;28;20040;-22
2021/06/30 02:02:15;;;;;;;11.45;7.63;;;;;;;22.49;62.63;99937.56;5087839;28;20024;-22
2021/06/30 02:04:41;;;;;;;10.57;7.00;;;;;;;22.56;63.07;99950.75;5088058;28;20027;-22
2021/06/30 02:07:07;;;;;;;9.70;7.22;;;;;;;22.41;63.36;99927.38;5053186;28;20040;-22
2021/06/30 02:09:32;;;;;;;11.07;7.32;;;;;;;22.42;63.22;99937.97;5087758;28;20096;-22
2021/06/30 02:11:58;;;;;;;11.73;7.40;;;;;;;22.22;63.51;99938.31;5087471;28;20040;-22
2021/06/30 02:14:24;;;;;;;8.90;7.05;;;;;;;22.66;62.81;99953.28;5087660;28;20063;-22
2021/06/30 02:16:49;;;;;;;12.05;7.18;;;;;;;22.45;62.84;99937.38;5087531;28;20117;-22
2021/06/30 02:19:15;;;;;;;9.32;6.60;;;;;;;22.58;62.92;99959.41;5087742;28;20040;-22
2021/06/30 02:21:41;;;;;;;12.23;6.82;;;;;;;22.70;62.55;99967.88;5087713;28;20818;-22
2021/06/30 02:24:07;;;;;;;9.98;6.75;;;;;;;22.60;63.24;99954.50;5087395;28;20129;-22
2021/06/30 02:26:33;;;;;;;14.05;7.80;;;;;;;22.60;62.97;99970.78;5087409;28;20440;-22
2021/06/30 02:28:59;;;;;;;10.00;7.43;;;;;;;22.31;64.46;99974.56;5087375;28;20036;-22
2021/06/30 02:31:25;;;;;;;8.82;6.75;;;;;;;22.05;64.79;99971.47;5087307;28;20053;-22
2021/06/30 02:33:51;;;;;;;14.93;7.28;;;;;;;22.11;64.66;99969.47;5087361;28;20111;-22
2021/06/30 02:36:16;;;;;;;11.13;6.95;;;;;;;22.01;64.79;99970.47;5087410;28;20492;-22
2021/06/30 02:38:42;;;;;;;11.07;7.00;;;;;;;22.04;64.71;99989.66;5087320;28;20109;-22
2021/06/30 02:41:07;;;;;;;14.15;7.05;;;;;;;22.23;64.22;99977.94;5087537;28;20032;-22
2021/06/30 02:43:33;;;;;;;14.25;7.03;;;;;;;22.29;63.77;99984.91;5087271;28;20032;-22
2021/06/30 02:45:58;;;;;;;28.08;8.73;;;;;;;22.17;64.42;99985.41;5086941;28;20032;-22
2021/06/30 02:48:25;;;;;;;8.63;6.78;;;;;;;21.96;64.83;99987.63;5069199;28;20040;-23
2021/06/30 02:50:52;;;;;;;9.73;7.22;;;;;;;21.66;66.08;99997.88;5087380;28;20035;-22
2021/06/30 02:53:17;;;;;;;10.63;7.50;;;;;;;21.51;66.36;99989.16;5086971;28;20488;-22
2021/06/30 02:55:43;;;;;;;13.07;7.25;;;;;;;21.36;67.10;99995.56;5087086;28;20043;-22
2021/06/30 02:58:08;;;;;;;14.13;8.25;;;;;;;21.35;67.54;99999.38;5087138;28;20116;-22
2021/06/30 03:00:34;;;;;;;12.50;7.57;;;;;;;21.31;67.55;99982.06;5086987;28;20021;-22
2021/06/30 03:02:59;;;;;;;11.20;7.72;;;;;;;21.35;67.40;99986.63;5069500;28;20032;-22
2021/06/30 03:05:25;;;;;;;12.98;7.63;;;;;;;21.11;68.12;99992.09;5087559;28;20032;-22
2021/06/30 03:07:51;;;;;;;10.70;7.28;;;;;;;21.11;68.39;99994.00;5090561;28;20040;-22
2021/06/30 03:10:16;;;;;;;15.27;8.20;;;;;;;21.00;68.58;99977.06;5090874;28;20097;-22
2021/06/30 03:12:42;;;;;;;10.93;7.28;;;;;;;21.09;68.52;99988.88;5091124;28;20035;-22
2021/06/30 03:15:08;;;;;;;13.77;8.07;;;;;;;21.34;67.93;99990.44;5090966;28;20032;-22
2021/06/30 03:17:35;;;;;;;13.48;8.98;;;;;;;22.28;64.06;99988.75;5090831;28;20032;-22
2021/06/30 03:20:01;;;;;;;13.05;7.70;;;;;;;22.36;63.64;100004.38;5090842;28;20035;-22
2021/06/30 03:22:27;;;;;;;11.45;8.32;;;;;;;22.08;64.93;99998.81;5090776;28;20479;-22
2021/06/30 03:24:53;;;;;;;18.00;8.20;;;;;;;21.90;65.60;99986.09;5090899;28;20070;-23
2021/06/30 03:27:19;;;;;;;16.52;8.35;;;;;;;22.14;65.34;100002.28;5090915;28;20085;-22
2021/06/30 03:29:45;;;;;;;15.70;8.63;;;;;;;22.15;65.19;100005.78;5090494;28;20051;-22
2021/06/30 03:32:10;;;;;;;11.63;7.78;;;;;;;21.93;65.63;100007.22;5091052;28;20491;-22
2021/06/30 03:34:36;;;;;;;12.05;7.47;;;;;;;21.96;65.77;100008.53;5090823;28;20082;-22
2021/06/30 03:37:01;;;;;;;11.77;6.93;;;;;;;21.81;65.86;99996.03;5090621;28;20769;-21
2021/06/30 03:39:27;;;;;;;14.00;7.80;;;;;;;21.76;65.62;99990.66;5090628;28;20034;-22
2021/06/30 03:41:52;;;;;;;11.80;8.25;;;;;;;22.05;64.56;99994.00;5090449;28;20454;-21
2021/06/30 03:44:17;;;;;;;12.05;7.47;;;;;;;22.45;63.37;99990.88;5090405;28;20036;-21
2021/06/30 03:46:43;;;;;;;10.88;7.50;;;;;;;22.22;64.27;100003.50;5090798;28;20875;-21
2021/06/30 03:49:08;;;;;;;12.13;7.25;;;;;;;22.18;64.17;100002.50;5090458;28;20035;-21
2021/06/30 03:51:34;;;;;;;13.10;7.70;;;;;;;22.32;63.49;100003.34;5090211;28;20070;-22
2021/06/30 03:53:59;;;;;;;9.88;7.03;;;;;;;22.22;63.91;100004.31;5090123;28;20396;-22
2021/06/30 03:56:25;;;;;;;11.23;7.38;;;;;;;22.06;64.66;100006.47;5090349;28;20028;-21
2021/06/30 03:58:54;;;;;;;10.48;7.18;;;;;;;21.81;65.04;99993.31;5090316;28;20484;-21
2021/06/30 04:01:20;;;;;;;9.93;7.60;;;;;;;22.04;64.71;100008.66;5090167;28;20492;-21
2021/06/30 04:03:49;;;;;;;11.50;7.75;;;;;;;22.49;62.99;100005.50;5089807;28;20036;-23
2021/06/30 04:06:15;;;;;;;12.10;7.13;;;;;;;22.64;62.77;100004.41;5089731;28;20036;-22
2021/06/30 04:08:40;;;;;;;12.70;7.65;;;;;;;22.62;62.58;99998.47;5089679;28;20093;-21
2021/06/30 04:11:06;;;;;;;11.45;7.50;;;;;;;22.14;64.39;100004.97;5090085;28;20020;-21
2021/06/30 04:13:31;;;;;;;12.93;7.55;;;;;;;22.45;62.73;99991.72;5090012;28;20085;-21
2021/06/30 04:15:56;;;;;;;11.15;7.90;;;;;;;22.17;64.29;100009.00;5089725;28;20024;-22
2021/06/30 04:18:22;;;;;;;9.77;7.53;;;;;;;22.10;64.31;99992.31;5090135;28;20419;-21
2021/06/30 04:20:48;;;;;;;11.90;8.07;;;;;;;21.81;65.27;99998.75;5089915;28;20024;-21
2021/06/30 04:23:13;;;;;;;17.05;8.93;;;;;;;22.02;64.97;100004.66;5089788;28;20028;-21
2021/06/30 04:25:38;;;;;;;11.65;7.50;;;;;;;22.31;64.18;99993.56;5089873;28;20035;-22
2021/06/30 04:28:05;;;;;;;12.60;7.72;;;;;;;22.65;63.22;100012.25;5089512;28;20603;-22
2021/06/30 04:30:31;;;;;;;12.30;8.10;;;;;;;22.73;63.07;99996.38;5089824;28;20471;-21
2021/06/30 04:32:57;;;;;;;10.70;7.90;;;;;;;22.60;63.84;99985.19;5089755;28;20585;-21
2021/06/30 04:35:22;;;;;;;10.30;7.90;;;;;;;22.74;63.02;99998.78;5089618;28;20093;-21
2021/06/30 04:37:48;;;;;;;11.30;8.55;;;;;;;22.49;64.49;99993.81;5089249;28;20040;-22
2021/06/30 04:40:13;;;;;;;14.02;8.63;;;;;;;22.23;65.24;99999.66;5089509;28;20038;-22
2021/06/30 04:42:39;;;;;;;11.70;8.13;;;;;;;22.18;65.04;100002.50;5089516;28;20422;-21
2021/06/30 04:45:05;;;;;;;11.52;7.95;;;;;;;22.47;64.45;100007.69;5089434;28;20028;-22
2021/06/30 04:47:30;;;;;;;12.02;8.75;;;;;;;22.90;63.87;100001.19;5089351;28;20080;-22
2021/06/30 04:49:56;;;;;;;10.55;7.97;;;;;;;23.18;62.48;100002.81;5089017;28;20024;-22
2021/06/30 04:52:21;;;;;;;13.05;8.63;;;;;;;23.32;62.41;100007.44;5089323;28;20028;-21
2021/06/30 04:54:47;;;;;;;10.93;8.27;;;;;;;23.65;61.81;100017.00;5089247;28;20036;-21
2021/06/30 04:57:12;;;;;;;9.50;6.53;;;;;;;23.82;60.99;100016.38;5089240;28;20028;-21
2021/06/30 04:59:38;;;;;;;11.20;9.15;;;;;;;23.64;60.86;100011.88;5088754;28;20511;-25
2021/06/30 05:02:03;;;;;;;13.60;8.25;;;;;;;23.37;61.55;100007.31;5087856;28;20028;-21
2021/06/30 05:04:29;;;;;;;11.15;8.88;;;;;;;23.25;63.13;100011.38;5089090;28;20106;-21
2021/06/30 05:06:54;;;;;;;11.77;7.78;;;;;;;23.46;61.58;100002.75;5089060;28;20032;-21
2021/06/30 05:09:20;;;;;;;12.18;9.43;;;;;;;24.14;59.66;100021.88;5088903;28;20890;-22
2021/06/30 05:11:45;;;;;;;12.18;8.85;;;;;;;24.23;58.49;100020.84;5088410;28;20024;-21
2021/06/30 05:14:10;;;;;;;13.15;9.40;;;;;;;24.66;56.96;100024.91;5088711;28;20089;-21
2021/06/30 05:16:36;;;;;;;14.27;9.80;;;;;;;24.06;58.63;100002.44;5088724;28;20411;-21
2021/06/30 05:19:01;;;;;;;14.20;10.45;;;;;;;24.08;56.75;100015.75;5088565;28;20060;-21
2021/06/30 05:21:27;;;;;;;11.57;9.43;;;;;;;24.67;55.83;100015.63;5088852;28;20020;-22
2021/06/30 05:23:52;;;;;;;13.80;9.60;;;;;;;24.41;56.09;100026.38;5088403;28;20032;-21
2021/06/30 05:26:18;;;;;;;11.80;9.07;;;;;;;24.66;55.85;100033.91;5088403;28;20039;-21
2021/06/30 05:28:43;;;;;;;13.20;8.98;;;;;;;24.82;55.63;100034.28;5088099;28;20036;-21
2021/06/30 05:31:09;;;;;;;11.00;8.27;;;;;;;24.93;56.19;100028.53;5088508;28;20145;-21
2021/06/30 05:33:34;;;;;;;14.25;9.55;;;;;;;25.19;54.57;100025.88;5088399;28;20120;-21
2021/06/30 05:36:00;;;;;;;22.95;15.02;;;;;;;25.42;53.85;100021.16;5088155;28;20024;-21
2021/06/30 05:38:25;;;;;;;12.15;8.73;;;;;;;25.15;55.14;100031.19;5088310;28;20035;-22
2021/06/30 05:40:51;;;;;;;12.77;9.40;;;;;;;24.81;54.73;100013.59;5088890;28;20137;-21
2021/06/30 05:43:16;;;;;;;12.80;9.82;;;;;;;24.84;55.03;100015.66;5088446;28;20134;-21
2021/06/30 05:45:42;;;;;;;12.57;9.63;;;;;;;25.22;54.67;100020.63;5088159;28;20024;-21
2021/06/30 05:48:08;;;;;;;12.95;9.63;;;;;;;25.26;55.00;100024.31;5088035;28;20050;-21
2021/06/30 05:50:33;;;;;;;12.68;9.23;;;;;;;25.44;55.07;100011.50;5088375;28;20055;-21
2021/06/30 05:52:59;;;;;;;12.02;8.80;;;;;;;25.26;54.86;100007.94;5088273;28;20062;-21
2021/06/30 05:55:24;;;;;;;12.40;8.98;;;;;;;25.70;54.60;100021.63;5088151;28;20069;-21
2021/06/30 05:57:50;;;;;;;12.13;8.98;;;;;;;25.61;54.99;100015.38;5087866;28;20047;-21
2021/06/30 06:00:18;;;;;;;16.02;9.90;;;;;;;25.74;54.87;100021.78;5087923;28;20492;-21
2021/06/30 06:02:44;;;;;;;11.50;9.05;;;;;;;25.79;54.68;100019.72;5087751;28;20039;-22
2021/06/30 06:05:10;;;;;;;12.18;9.65;;;;;;;25.67;54.13;100016.81;5087837;28;20032;-21
2021/06/30 06:07:35;;;;;;;11.20;9.00;;;;;;;25.85;54.35;100012.16;5087628;28;20077;-21
2021/06/30 06:10:01;;;;;;;12.20;9.88;;;;;;;25.83;54.49;100019.88;5087514;28;20052;-21
2021/06/30 06:12:26;;;;;;;14.85;9.30;;;;;;;25.66;56.01;100021.50;5087522;28;20019;-21
2021/06/30 06:14:52;;;;;;;13.20;9.52;;;;;;;25.82;54.32;100018.25;5087718;28;20039;-23
2021/06/30 06:17:18;;;;;;;13.80;9.57;;;;;;;25.74;55.88;100005.41;5087348;28;20101;-22
2021/06/30 06:19:43;;;;;;;13.57;9.30;;;;;;;26.05;54.35;100017.00;5087337;28;20040;-22
2021/06/30 06:22:09;;;;;;;11.93;9.85;;;;;;;25.87;53.35;100001.72;5088188;28;20039;-21
2021/06/30 06:24:34;;;;;;;11.93;9.23;;;;;;;26.08;54.79;100014.72;5087499;28;20366;-21
2021/06/30 06:27:00;;;;;;;15.50;9.40;;;;;;;26.14;54.21;100007.97;5087772;28;20028;-21
2021/06/30 06:29:26;;;;;;;12.88;9.80;;;;;;;26.46;53.04;100010.13;5086988;28;20138;-21
2021/06/30 06:31:52;;;;;;;14.60;9.38;;;;;;;26.72;53.36;100017.44;5087218;28;20032;-21
2021/06/30 06:34:20;;;;;;;12.55;9.80;;;;;;;26.91;52.45;100018.97;5087366;28;20035;-21
2021/06/30 06:36:50;;;;;;;12.30;9.20;;;;;;;26.77;53.02;100011.81;5087376;28;20039;-21
2021/06/30 06:39:16;;;;;;;13.07;10.32;;;;;;;26.90;52.00;99995.50;5087222;28;20031;-21
2021/06/30 06:41:41;;;;;;;12.15;9.88;;;;;;;27.05;51.93;100009.41;5086344;28;20077;-21
2021/06/30 06:44:07;;;;;;;13.93;10.15;;;;;;;26.89;52.73;100010.28;5087454;28;20036;-21
2021/06/30 06:46:33;;;;;;;11.30;9.30;;;;;;;27.30;52.02;100009.59;5087351;28;20487;-21
2021/06/30 06:48:58;;;;;;;13.85;10.38;;;;;;;27.77;50.97;100008.59;5087245;28;20032;-21
2021/06/30 06:51:25;;;;;;;13.27;10.30;;;;;;;27.93;49.67;100008.78;5085773;28;20043;-21
2021/06/30 06:53:51;;;;;;;12.32;10.50;;;;;;;27.64;49.74;100003.06;5086957;28;20104;-22
2021/06/30 06:56:19;;;;;;;13.35;10.13;;;;;;;27.16;52.80;99998.06;5087041;28;20036;-22
2021/06/30 06:58:45;;;;;;;14.02;10.93;;;;;;;27.60;50.29;100001.31;5087242;28;20036;-21
2021/06/30 07:01:11;;;;;;;12.63;10.73;;;;;;;28.03;49.87;99992.75;5086987;28;20457;-21
2021/06/30 07:03:36;;;;;;;12.45;10.65;;;;;;;27.81;49.60;99982.13;5087274;28;20461;-21
2021/06/30 07:06:02;;;;;;;14.57;10.18;;;;;;;27.82;49.71;99987.25;5086868;28;20036;-21
2021/06/30 07:08:27;;;;;;;12.88;10.88;;;;;;;28.12;49.13;99970.72;5086896;28;20113;-22
2021/06/30 07:10:53;;;;;;;17.27;10.60;;;;;;;28.40;49.45;99987.34;5086938;28;20060;-22
2021/06/30 07:13:18;;;;;;;15.70;10.75;;;;;;;28.16;50.79;99981.81;5087183;28;20059;-21
2021/06/30 07:15:44;;;;;;;13.38;10.52;;;;;;;28.38;49.10;99989.63;5086865;28;20070;-22
2021/06/30 07:18:14;;;;;;;12.40;10.20;;;;;;;28.12;50.20;99984.41;5086944;28;20043;-22
2021/06/30 07:20:40;;;;;;;14.52;10.30;;;;;;;28.72;49.37;99989.53;5087029;28;20024;-22
2021/06/30 07:23:05;;;;;;;15.45;10.45;;;;;;;28.85;48.92;100000.19;5086732;28;20097;-22
2021/06/30 07:25:31;;;;;;;13.77;10.23;;;;;;;28.99;48.99;99985.28;5086931;28;20028;-22
2021/06/30 07:27:56;;;;;;;15.80;11.35;;;;;;;28.46;48.37;99987.88;5086763;28;20040;-22
2021/06/30 07:30:22;;;;;;;13.15;9.55;;;;;;;28.57;50.05;99983.59;5086943;28;20050;-22
2021/06/30 07:32:47;;;;;;;11.55;10.30;;;;;;;28.56;48.95;99981.19;5086733;28;20036;-22
2021/06/30 07:35:13;;;;;;;15.13;10.52;;;;;;;28.47;50.39;99972.25;5086727;28;20028;-22
2021/06/30 07:37:38;;;;;;;12.07;10.52;;;;;;;28.35;49.67;99960.13;5086603;28;20032;-22
2021/06/30 07:40:05;;;;;;;15.40;11.52;;;;;;;28.77;48.18;99975.59;5086569;28;20039;-22
2021/06/30 07:42:30;;;;;;;11.98;10.32;;;;;;;29.38;46.81;99971.97;5086798;28;20403;-22
2021/06/30 07:44:55;;;;;;;12.27;10.55;;;;;;;29.50;47.31;99971.91;5086650;28;20027;-22
2021/06/30 07:47:21;;;;;;;11.98;9.75;;;;;;;29.63;48.19;99967.19;5086944;28;20039;-22
2021/06/30 07:49:46;;;;;;;13.68;10.90;;;;;;;29.86;46.83;99961.16;5086616;28;20039;-22
2021/06/30 07:52:12;;;;;;;12.10;10.05;;;;;;;30.20;44.99;99971.50;5087667;28;20334;-22
2021/06/30 07:54:37;;;;;;;12.63;10.93;;;;;;;29.75;47.31;99969.09;5090356;28;20488;-22
2021/06/30 07:57:03;;;;;;;11.95;10.68;;;;;;;29.64;45.90;99964.09;5090344;28;20040;-23
2021/06/30 07:59:29;;;;;;;11.48;9.85;;;;;;;29.92;45.63;99968.81;5090174;28;20078;-23
2021/06/30 08:01:54;;;;;;;12.38;10.27;;;;;;;30.35;46.20;99969.16;5090026;28;20047;-22
2021/06/30 08:04:20;;;;;;;15.40;10.60;;;;;;;30.38;45.70;99974.75;5090472;28;20144;-22
2021/06/30 08:06:45;;;;;;;11.60;10.35;;;;;;;30.23;45.93;99953.50;5089788;28;20040;-22
2021/06/30 08:09:11;;;;;;;11.05;9.85;;;;;;;30.28;45.62;99946.91;5089799;28;20059;-22
2021/06/30 08:11:36;;;;;;;12.55;10.65;;;;;;;30.19;46.20;99972.66;5090284;28;20024;-22
2021/06/30 08:14:02;;;;;;;11.73;9.90;;;;;;;30.29;46.07;99965.81;5089687;28;20036;-22
2021/06/30 08:16:27;;;;;;;12.32;10.35;;;;;;;30.02;46.12;99973.78;5089947;28;20028;-22
2021/06/30 08:18:52;;;;;;;14.70;10.93;;;;;;;30.29;44.53;99965.81;5090112;28;20024;-22
2021/06/30 08:21:18;;;;;;;13.00;10.55;;;;;;;30.35;43.89;99972.69;5089871;28;20411;-22
2021/06/30 08:23:44;;;;;;;11.38;10.20;;;;;;;30.79;44.73;99967.06;5089651;28;20127;-22
2021/06/30 08:26:10;;;;;;;12.23;10.73;;;;;;;30.44;44.98;99967.00;5089998;28;20028;-22
2021/06/30 08:28:36;;;;;;;12.38;10.45;;;;;;;30.40;45.36;99960.63;5089643;28;20100;-22
2021/06/30 08:31:02;;;;;;;12.40;10.98;;;;;;;30.67;45.47;99975.44;5089726;28;20032;-22
2021/06/30 08:33:27;;;;;;;13.15;11.52;;;;;;;30.89;43.65;99964.94;5089549;28;20380;-22
2021/06/30 08:35:55;;;;;;;13.27;10.40;;;;;;;30.86;45.17;99966.44;5089299;28;20031;-22
2021/06/30 08:38:20;;;;;;;13.10;10.45;;;;;;;31.22;44.34;99954.28;5089440;28;20036;-22
2021/06/30 08:40:46;;;;;;;15.40;11.68;;;;;;;31.22;43.18;99948.78;5090039;28;20036;-22
2021/06/30 08:43:11;;;;;;;13.43;12.10;;;;;;;31.50;41.89;99945.00;5089870;28;20032;-23
2021/06/30 08:45:37;;;;;;;11.90;10.63;;;;;;;31.39;43.73;99939.28;5089543;28;20032;-22
2021/06/30 08:48:03;;;;;;;13.43;11.55;;;;;;;31.12;44.11;99932.00;5089210;28;20046;-22
2021/06/30 08:50:28;;;;;;;12.07;10.75;;;;;;;31.02;45.00;99939.69;5089221;28;20027;-22
2021/06/30 08:52:54;;;;;;;14.93;10.40;;;;;;;31.12;43.82;99913.53;5089321;28;20527;-22
2021/06/30 08:55:20;;;;;;;13.40;11.02;;;;;;;31.72;42.81;99935.22;5054600;28;20118;-22
2021/06/30 08:57:46;;;;;;;14.40;11.68;;;;;;;31.82;43.51;99942.88;5054183;28;20126;-22
2021/06/30 09:00:12;;;;;;;12.15;10.73;;;;;;;31.70;41.93;99931.22;5088994;28;20085;-22
2021/06/30 09:02:39;;;;;;;13.07;11.55;;;;;;;32.11;42.65;99923.31;5089294;28;20054;-22
2021/06/30 09:07:50;;;;;;;14.05;10.93;;;;;;;32.18;41.50;99912.38;5088719;28;19923;-22
2021/06/30 09:10:35;;;;;;;14.25;10.65;;;;;;;32.67;40.23;99916.31;5089029;28;20052;-22
2021/06/30 09:13:01;;;;;;;11.55;10.35;;;;;;;32.88;40.23;99924.94;5088726;28;20024;-22
2021/06/30 09:15:32;;;;;;;11.88;10.52;;;;;;;32.46;39.55;99922.31;5088814;28;20472;-22
2021/06/30 09:18:17;;;;;;;16.23;11.88;;;;;;;32.29;41.29;99913.38;5088903;28;20133;-22
2021/06/30 09:20:42;;;;;;;13.65;9.70;;;;;;;32.64;40.90;99906.84;5088458;28;20096;-21
2021/06/30 09:23:08;;;;;;;12.90;10.32;;;;;;;32.31;42.31;99908.28;5088695;28;20040;-22
2021/06/30 09:25:41;;;;;;;12.80;10.10;;;;;;;32.64;41.54;99915.13;5088583;28;20468;-22
2021/06/30 09:28:22;;;;;;;13.32;9.63;;;;;;;32.77;41.53;99899.91;5088402;28;20087;-21
2021/06/30 09:30:54;;;;;;;11.60;10.00;;;;;;;32.68;41.87;99893.09;5088817;28;20041;-22
2021/06/30 09:33:20;;;;;;;13.98;9.63;;;;;;;32.89;40.16;99890.59;5088393;28;20089;-21
2021/06/30 09:35:45;;;;;;;11.20;9.52;;;;;;;33.34;39.93;99893.53;5070242;28;20423;-22
2021/06/30 09:38:36;;;;;;;11.68;10.10;;;;;;;33.63;39.38;99886.38;5070319;28;20028;-22
2021/06/30 09:41:02;;;;;;;11.70;9.57;;;;;;;33.04;41.64;99858.44;5088331;28;20028;-22
2021/06/30 09:43:28;;;;;;;21.98;11.25;;;;;;;33.34;40.23;99882.50;5088101;28;20027;-22
2021/06/30 09:45:55;;;;;;;13.32;10.40;;;;;;;33.99;38.06;99875.66;5087816;28;20032;-21
2021/06/30 09:48:34;;;;;;;12.10;9.45;;;;;;;33.45;39.33;99860.50;5088370;28;20039;-21
2021/06/30 09:51:01;;;;;;;11.05;9.68;;;;;;;32.90;41.61;99847.22;5087992;28;20039;-21
2021/06/30 09:53:33;;;;;;;13.38;10.48;;;;;;;33.03;40.90;99862.38;5088202;28;20031;-21
2021/06/30 09:56:37;;;;;;;13.15;9.88;;;;;;;33.52;40.64;99855.84;5087974;28;20042;-22
2021/06/30 09:59:08;;;;;;;12.05;10.25;;;;;;;33.78;39.17;99856.91;5087927;28;20403;-22
2021/06/30 10:01:34;;;;;;;10.77;9.63;;;;;;;34.13;38.82;99852.84;5088416;28;20046;-22
2021/06/30 10:03:59;;;;;;;11.98;10.10;;;;;;;33.80;39.13;99835.19;5087718;28;20032;-22
2021/06/30 10:06:29;;;;;;;11.43;10.32;;;;;;;33.77;38.78;99835.94;5088035;28;20070;-21
2021/06/30 10:08:55;;;;;;;11.90;10.63;;;;;;;33.95;39.55;99845.19;5087510;28;20059;-21
2021/06/30 10:11:20;;;;;;;11.25;10.05;;;;;;;34.24;37.81;99839.88;5087707;28;20411;-21
2021/06/30 10:13:47;;;;;;;12.77;11.13;;;;;;;34.37;37.37;99841.19;5087565;28;20028;-22
2021/06/30 10:16:18;;;;;;;12.15;10.75;;;;;;;34.52;38.41;99828.19;5069478;28;20031;-21
2021/06/30 10:18:44;;;;;;;13.35;9.85;;;;;;;34.39;37.54;99818.66;5070629;28;20085;-21
2021/06/30 10:21:11;;;;;;;12.38;11.10;;;;;;;34.41;37.75;99819.84;5087492;28;20036;-22
2021/06/30 10:23:37;;;;;;;12.00;10.80;;;;;;;34.64;36.69;99829.84;5087638;28;20032;-22
2021/06/30 10:26:03;;;;;;;11.93;10.73;;;;;;;34.22;37.67;99836.72;5087495;28;20544;-21
2021/06/30 10:28:28;;;;;;;11.23;9.77;;;;;;;34.39;37.67;99830.50;5087606;28;20024;-21
2021/06/30 10:30:53;;;;;;;11.98;10.85;;;;;;;34.13;37.04;99830.69;5052770;28;20043;-21
2021/06/30 10:33:31;;;;;;;12.90;11.57;;;;;;;33.97;37.50;99815.16;5069428;28;20027;-22
2021/06/30 10:35:57;;;;;;;12.73;11.43;;;;;;;34.39;36.65;99813.91;5087233;28;20032;-21
2021/06/30 10:38:22;;;;;;;12.48;11.30;;;;;;;34.53;37.40;99804.88;5087658;28;20454;-22
2021/06/30 10:40:48;;;;;;;12.52;11.25;;;;;;;34.55;38.15;99810.81;5087538;28;20032;-21
2021/06/30 10:43:13;;;;;;;14.13;11.23;;;;;;;34.91;36.36;99815.75;5087368;28;20135;-22
2021/06/30 10:45:42;;;;;;;14.80;11.40;;;;;;;34.69;36.70;99812.88;5087351;28;20035;-21
2021/06/30 10:48:10;;;;;;;12.82;11.60;;;;;;;34.55;36.73;99810.81;5087511;28;20024;-21
2021/06/30 10:50:35;;;;;;;12.55;11.27;;;;;;;34.71;37.35;99806.94;5087288;28;20763;-21
2021/06/30 10:53:01;;;;;;;15.05;11.02;;;;;;;34.78;37.11;99805.00;5087531;28;20031;-21
2021/06/30 10:55:33;;;;;;;14.18;10.68;;;;;;;34.92;36.49;99800.69;5087042;28;20117;-21
2021/06/30 10:58:10;;;;;;;13.30;11.63;;;;;;;34.95;36.70;99805.47;5086885;28;20024;-21
2021/06/30 11:00:36;;;;;;;15.07;11.70;;;;;;;34.97;36.74;99789.25;5087496;28;20557;-21
2021/06/30 11:03:23;;;;;;;12.70;11.48;;;;;;;35.53;35.74;99798.06;5087227;28;20098;-22
2021/06/30 11:05:50;;;;;;;14.43;11.70;;;;;;;35.79;36.23;99797.72;5086909;28;20085;-21
2021/06/30 11:08:38;;;;;;;12.40;10.75;;;;;;;36.23;35.08;99798.50;5087037;28;20192;-21
2021/06/30 11:11:04;;;;;;;12.15;10.95;;;;;;;36.16;35.04;99776.28;5086740;28;20043;-22
2021/06/30 11:13:52;;;;;;;12.20;11.00;;;;;;;36.35;34.74;99778.63;5087193;28;20028;-21
2021/06/30 11:16:48;;;;;;;13.55;10.75;;;;;;;36.57;34.37;99784.09;5087004;28;20031;-21
2021/06/30 11:19:19;;;;;;;;;;;;;;;36.73;34.04;99787.22;5087281;28;20050;-22
2021/06/30 11:21:45;;;;;;;12.23;10.98;;;;;;;36.60;33.99;99769.41;5086895;28;19912;-22